createdAt,value
2023-04-26T00:00:19.185Z,33.07
2023-04-26T00:01:19.223Z,33.02
2023-04-26T00:02:19.396Z,33.05
2023-04-26T00:03:19.424Z,33.08
2023-04-26T00:04:19.516Z,33.07
2023-04-26T00:05:19.573Z,33.02
2023-04-26T00:06:19.360Z,33.02
2023-04-26T00:07:19.415Z,33.08
2023-04-26T00:08:19.438Z,33.02
2023-04-26T00:09:19.483Z,33.05
2023-04-26T00:10:19.494Z,33.03
2023-04-26T00:11:19.522Z,33.03
2023-04-26T00:12:19.567Z,33.07
2023-04-26T00:13:19.582Z,33.02
2023-04-26T00:14:19.612Z,32.99
2023-04-26T00:15:19.656Z,33.08
2023-04-26T00:16:19.711Z,33.05
2023-04-26T00:17:19.718Z,33.04
2023-04-26T00:18:19.767Z,33.00
2023-04-26T00:19:19.773Z,32.99
2023-04-26T00:20:19.806Z,33.02
2023-04-26T00:21:19.819Z,33.07
2023-04-26T00:22:19.846Z,33.05
2023-04-26T00:23:19.882Z,33.03
2023-04-26T00:24:19.916Z,32.99
2023-04-26T00:25:19.948Z,32.99
2023-04-26T00:26:19.954Z,32.97
2023-04-26T00:27:19.982Z,32.97
2023-04-26T00:28:20.003Z,33.07
2023-04-26T00:29:20.034Z,33.03
2023-04-26T00:30:20.075Z,33.05
2023-04-26T00:31:20.133Z,33.02
2023-04-26T00:32:20.182Z,33.05
2023-04-26T00:33:20.131Z,33.08
2023-04-26T00:34:20.196Z,33.05
2023-04-26T00:35:20.173Z,33.07
2023-04-26T00:36:20.204Z,33.03
2023-04-26T00:37:20.974Z,33.02
2023-04-26T00:38:20.243Z,33.00
2023-04-26T00:39:20.279Z,33.13
2023-04-26T00:40:20.310Z,33.08
2023-04-26T00:41:20.353Z,33.08
2023-04-26T00:42:20.373Z,33.07
2023-04-26T00:43:20.974Z,33.07
2023-04-26T00:44:20.443Z,33.10
2023-04-26T00:45:20.451Z,33.02
2023-04-26T00:46:20.587Z,33.07
2023-04-26T00:47:20.482Z,33.03
2023-04-26T00:48:20.502Z,33.05
2023-04-26T00:49:20.528Z,33.07
2023-04-26T00:50:20.552Z,33.03
2023-04-26T00:51:20.575Z,33.11
2023-04-26T00:52:20.599Z,33.13
2023-04-26T00:53:20.626Z,33.08
2023-04-26T00:54:20.659Z,33.13
2023-04-26T00:55:20.729Z,33.07
2023-04-26T00:56:20.704Z,33.05
2023-04-26T00:57:20.718Z,33.02
2023-04-26T00:58:20.732Z,32.97
2023-04-26T00:59:20.817Z,33.07
2023-04-26T01:00:20.797Z,33.03
2023-04-26T01:01:20.860Z,33.08
2023-04-26T01:02:20.946Z,33.10
2023-04-26T01:03:20.937Z,33.10
2023-04-26T01:04:21.000Z,33.08
2023-04-26T01:05:20.916Z,33.02
2023-04-26T01:06:20.936Z,33.05
2023-04-26T01:07:20.961Z,33.08
2023-04-26T01:08:21.150Z,33.08
2023-04-26T01:09:21.019Z,33.05
2023-04-26T01:10:21.038Z,33.07
2023-04-26T01:11:21.065Z,33.07
2023-04-26T01:12:21.088Z,33.07
2023-04-26T01:13:21.115Z,33.08
2023-04-26T01:14:21.151Z,33.05
2023-04-26T01:15:21.173Z,33.08
2023-04-26T01:16:21.211Z,33.07
2023-04-26T01:17:21.265Z,33.02
2023-04-26T01:18:21.247Z,33.08
2023-04-26T01:19:21.274Z,33.05
2023-04-26T01:20:21.292Z,33.03
2023-04-26T01:21:21.317Z,33.02
2023-04-26T01:22:21.345Z,33.07
2023-04-26T01:23:21.356Z,33.05
2023-04-26T01:24:21.387Z,33.05
2023-04-26T01:25:21.402Z,33.08
2023-04-26T01:26:21.412Z,33.07
2023-04-26T01:27:21.457Z,33.05
2023-04-26T01:28:21.483Z,33.10
2023-04-26T01:29:21.530Z,33.00
2023-04-26T01:30:21.531Z,33.05
2023-04-26T01:31:21.608Z,33.02
2023-04-26T01:32:21.585Z,33.08
2023-04-26T01:33:21.629Z,33.08
2023-04-26T01:34:21.656Z,33.07
2023-04-26T01:35:21.675Z,33.05
2023-04-26T01:36:21.684Z,33.07
2023-04-26T01:37:21.706Z,33.13
2023-04-26T01:38:21.730Z,33.13
2023-04-26T01:39:21.741Z,33.08
2023-04-26T01:40:21.786Z,33.05
2023-04-26T01:41:21.792Z,33.11
2023-04-26T01:42:21.826Z,33.02
2023-04-26T01:43:21.860Z,33.08
2023-04-26T01:44:21.880Z,33.07
2023-04-26T01:45:21.907Z,33.03
2023-04-26T01:46:21.986Z,33.05
2023-04-26T01:47:21.997Z,33.10
2023-04-26T01:48:22.046Z,33.07
2023-04-26T01:49:22.029Z,33.10
2023-04-26T01:50:22.061Z,33.11
2023-04-26T01:51:22.084Z,33.11
2023-04-26T01:52:22.126Z,33.07
2023-04-26T01:53:22.135Z,33.08
2023-04-26T01:54:22.174Z,33.08
2023-04-26T01:55:22.192Z,33.08
2023-04-26T01:56:22.214Z,33.08
2023-04-26T01:57:22.242Z,33.08
2023-04-26T01:58:22.263Z,33.09
2023-04-26T01:59:22.306Z,33.08
2023-04-26T02:00:22.323Z,33.10
2023-04-26T02:01:22.428Z,33.11
2023-04-26T02:02:22.433Z,33.10
2023-04-26T02:03:22.489Z,33.09
2023-04-26T02:04:22.452Z,33.14
2023-04-26T02:05:22.691Z,33.10
2023-04-26T02:06:22.506Z,33.03
2023-04-26T02:07:22.535Z,33.13
2023-04-26T02:08:22.574Z,33.03
2023-04-26T02:09:22.584Z,33.14
2023-04-26T02:10:22.623Z,33.09
2023-04-26T02:11:22.649Z,33.11
2023-04-26T02:12:22.699Z,33.10
2023-04-26T02:13:22.718Z,33.16
2023-04-26T02:14:22.742Z,33.08
2023-04-26T02:15:22.768Z,33.14
2023-04-26T02:16:22.826Z,33.13
2023-04-26T02:17:22.815Z,33.08
2023-04-26T02:18:22.850Z,33.06
2023-04-26T02:19:22.876Z,33.08
2023-04-26T02:20:22.919Z,33.08
2023-04-26T02:21:22.948Z,33.08
2023-04-26T02:22:22.965Z,33.11
2023-04-26T02:23:22.985Z,33.11
2023-04-26T02:24:23.037Z,33.11
2023-04-26T02:25:23.173Z,33.11
2023-04-26T02:26:23.087Z,33.13
2023-04-26T02:27:23.106Z,33.09
2023-04-26T02:28:23.141Z,33.13
2023-04-26T02:29:36.233Z,33.11
2023-04-26T02:30:24.138Z,33.11
2023-04-26T02:31:23.369Z,33.13
2023-04-26T02:32:23.098Z,33.13
2023-04-26T02:33:23.020Z,33.13
2023-04-26T02:34:22.997Z,33.17
2023-04-26T02:35:22.949Z,33.13
2023-04-26T02:36:22.906Z,33.14
2023-04-26T02:37:22.863Z,33.13
2023-04-26T02:38:22.821Z,33.17
2023-04-26T02:39:22.816Z,33.19
2023-04-26T02:40:22.854Z,33.17
2023-04-26T02:41:22.865Z,33.14
2023-04-26T02:42:22.893Z,33.24
2023-04-26T02:43:22.920Z,33.17
2023-04-26T02:44:22.948Z,33.11
2023-04-26T02:45:22.963Z,33.20
2023-04-26T02:46:23.011Z,33.13
2023-04-26T02:47:23.056Z,33.14
2023-04-26T02:48:23.044Z,33.12
2023-04-26T02:49:23.086Z,33.13
2023-04-26T02:50:23.105Z,33.19
2023-04-26T02:51:23.143Z,33.16
2023-04-26T02:52:23.167Z,33.14
2023-04-26T02:53:23.198Z,33.16
2023-04-26T02:54:23.222Z,33.16
2023-04-26T02:55:23.299Z,33.14
2023-04-26T02:56:23.276Z,33.16
2023-04-26T02:57:23.300Z,33.16
2023-04-26T02:58:23.362Z,33.17
2023-04-26T02:59:23.364Z,33.17
2023-04-26T03:00:23.383Z,33.20
2023-04-26T03:01:23.434Z,33.14
2023-04-26T03:02:23.517Z,33.13
2023-04-26T03:03:23.745Z,33.12
2023-04-26T03:04:23.518Z,33.11
2023-04-26T03:05:23.477Z,33.16
2023-04-26T03:06:23.501Z,33.14
2023-04-26T03:07:23.538Z,33.17
2023-04-26T03:08:23.569Z,33.11
2023-04-26T03:09:23.594Z,33.20
2023-04-26T03:10:23.627Z,33.11
2023-04-26T03:11:23.655Z,33.16
2023-04-26T03:12:23.685Z,33.12
2023-04-26T03:13:23.712Z,33.14
2023-04-26T03:14:23.738Z,33.14
2023-04-26T03:15:23.773Z,33.19
2023-04-26T03:16:23.917Z,33.11
2023-04-26T03:17:23.862Z,33.16
2023-04-26T03:18:23.869Z,33.14
2023-04-26T03:19:23.876Z,33.11
2023-04-26T03:20:23.905Z,33.12
2023-04-26T03:21:23.932Z,33.14
2023-04-26T03:22:23.957Z,33.13
2023-04-26T03:23:23.993Z,33.09
2023-04-26T03:24:24.036Z,33.11
2023-04-26T03:25:24.056Z,33.09
2023-04-26T03:26:24.096Z,33.09
2023-04-26T03:27:24.142Z,33.12
2023-04-26T03:28:24.168Z,33.09
2023-04-26T03:29:24.238Z,33.12
2023-04-26T03:30:24.229Z,33.12
2023-04-26T03:31:24.321Z,33.13
2023-04-26T03:32:24.297Z,33.06
2023-04-26T03:33:24.342Z,33.12
2023-04-26T03:34:24.382Z,33.08
2023-04-26T03:35:24.572Z,33.17
2023-04-26T03:36:24.449Z,33.11
2023-04-26T03:37:24.471Z,33.12
2023-04-26T03:38:24.493Z,33.14
2023-04-26T03:39:24.539Z,33.08
2023-04-26T03:40:24.578Z,33.17
2023-04-26T03:41:24.597Z,33.03
2023-04-26T03:42:24.636Z,33.11
2023-04-26T03:43:24.649Z,33.14
2023-04-26T03:44:24.668Z,33.09
2023-04-26T03:45:24.721Z,33.11
2023-04-26T03:46:24.794Z,33.07
2023-04-26T03:47:24.842Z,33.09
2023-04-26T03:48:24.814Z,33.11
2023-04-26T03:49:24.848Z,33.03
2023-04-26T03:50:24.885Z,33.12
2023-04-26T03:51:24.894Z,33.09
2023-04-26T03:52:24.916Z,33.08
2023-04-26T03:53:24.948Z,33.11
2023-04-26T03:54:25.017Z,33.10
2023-04-26T03:55:25.007Z,33.06
2023-04-26T03:56:25.034Z,33.11
2023-04-26T03:57:25.060Z,33.13
2023-04-26T03:58:25.104Z,33.11
2023-04-26T03:59:25.105Z,33.05
2023-04-26T04:00:25.128Z,33.08
2023-04-26T04:01:25.148Z,33.08
2023-04-26T04:02:25.249Z,33.09
2023-04-26T04:03:25.471Z,33.11
2023-04-26T04:04:25.432Z,33.13
2023-04-26T04:05:25.312Z,33.09
2023-04-26T04:06:25.276Z,33.09
2023-04-26T04:07:25.307Z,33.08
2023-04-26T04:08:25.333Z,33.11
2023-04-26T04:09:25.367Z,33.12
2023-04-26T04:10:25.376Z,33.12
2023-04-26T04:11:25.400Z,33.06
2023-04-26T04:12:25.425Z,33.13
2023-04-26T04:13:25.438Z,33.11
2023-04-26T04:14:25.469Z,33.13
2023-04-26T04:15:25.520Z,33.13
2023-04-26T04:16:25.569Z,33.13
2023-04-26T04:17:25.553Z,33.18
2023-04-26T04:18:25.590Z,33.14
2023-04-26T04:19:25.616Z,33.11
2023-04-26T04:20:25.640Z,33.06
2023-04-26T04:21:25.635Z,33.08
2023-04-26T04:22:25.662Z,33.14
2023-04-26T04:23:25.687Z,33.00
2023-04-26T04:24:25.762Z,33.14
2023-04-26T04:25:25.749Z,33.10
2023-04-26T04:26:25.805Z,33.04
2023-04-26T04:27:25.794Z,33.09
2023-04-26T04:28:25.833Z,33.12
2023-04-26T04:29:25.871Z,33.08
2023-04-26T04:30:25.915Z,33.11
2023-04-26T04:31:25.979Z,33.11
2023-04-26T04:32:26.000Z,33.08
2023-04-26T04:33:26.001Z,33.14
2023-04-26T04:34:26.056Z,33.11
2023-04-26T04:35:26.075Z,33.13
2023-04-26T04:36:26.103Z,33.12
2023-04-26T04:37:26.127Z,33.11
2023-04-26T04:38:26.167Z,33.11
2023-04-26T04:39:26.193Z,33.11
2023-04-26T04:40:26.229Z,33.12
2023-04-26T04:41:26.255Z,33.08
2023-04-26T04:42:26.296Z,33.11
2023-04-26T04:43:26.317Z,33.11
2023-04-26T04:44:26.360Z,33.11
2023-04-26T04:45:26.384Z,33.17
2023-04-26T04:46:26.469Z,33.12
2023-04-26T04:47:26.565Z,33.06
2023-04-26T04:48:26.479Z,33.14
2023-04-26T04:49:26.502Z,33.12
2023-04-26T04:50:26.544Z,33.09
2023-04-26T04:51:26.579Z,33.11
2023-04-26T04:52:26.596Z,33.08
2023-04-26T04:53:26.621Z,33.08
2023-04-26T04:54:26.653Z,33.05
2023-04-26T04:55:26.675Z,33.08
2023-04-26T04:56:26.719Z,33.08
2023-04-26T04:57:26.745Z,33.06
2023-04-26T04:58:26.767Z,33.00
2023-04-26T05:00:26.820Z,33.06
2023-04-26T05:01:26.905Z,33.05
2023-04-26T05:02:26.986Z,33.12
2023-04-26T05:03:26.998Z,33.55
2023-04-26T05:04:27.177Z,33.40
2023-04-26T05:05:26.988Z,33.42
2023-04-26T05:06:27.009Z,34.16
2023-04-26T05:07:28.958Z,33.93
2023-04-26T05:08:27.066Z,33.81
2023-04-26T05:09:27.098Z,34.91
2023-04-26T05:10:27.121Z,35.59
2023-04-26T05:11:27.128Z,35.83
2023-04-26T05:12:27.202Z,35.92
2023-04-26T05:13:27.155Z,34.65
2023-04-26T05:14:27.187Z,34.91
2023-04-26T05:15:27.243Z,34.07
2023-04-26T05:16:27.268Z,34.20
2023-04-26T05:17:27.251Z,35.25
2023-04-26T05:18:28.170Z,35.76
2023-04-26T05:19:27.159Z,35.44
2023-04-26T05:20:27.129Z,35.95
2023-04-26T05:21:27.121Z,35.71
2023-04-26T05:22:27.618Z,35.54
2023-04-26T05:23:27.086Z,35.39
2023-04-26T05:24:27.093Z,35.18
2023-04-26T05:25:27.079Z,34.87
2023-04-26T05:26:27.067Z,33.71
2023-04-26T05:27:27.033Z,32.79
2023-04-26T05:28:27.044Z,34.24
2023-04-26T05:29:27.635Z,35.32
2023-04-26T05:30:26.989Z,35.18
2023-04-26T05:31:27.221Z,34.28
2023-04-26T05:32:26.953Z,32.26
2023-04-26T05:33:26.939Z,32.67
2023-04-26T05:34:26.946Z,32.80
2023-04-26T05:35:26.911Z,33.35
2023-04-26T05:36:29.160Z,34.86
2023-04-26T05:37:29.831Z,35.22
2023-04-26T05:38:26.809Z,34.92
2023-04-26T05:39:26.778Z,34.61
2023-04-26T05:40:26.788Z,34.10
2023-04-26T05:41:26.733Z,33.91
2023-04-26T05:42:26.706Z,33.96
2023-04-26T05:43:28.255Z,34.09
2023-04-26T05:44:26.643Z,34.95
2023-04-26T05:45:26.650Z,35.12
2023-04-26T05:46:27.234Z,34.69
2023-04-26T05:47:26.700Z,34.67
2023-04-26T05:48:26.655Z,35.09
2023-04-26T05:49:26.573Z,35.31
2023-04-26T05:50:28.169Z,34.65
2023-04-26T05:51:26.522Z,34.13
2023-04-26T05:52:26.475Z,34.10
2023-04-26T05:53:26.601Z,33.94
2023-04-26T05:54:26.412Z,33.81
2023-04-26T05:55:26.388Z,33.77
2023-04-26T05:56:26.347Z,34.16
2023-04-26T05:57:26.384Z,34.13
2023-04-26T05:58:26.279Z,34.63
2023-04-26T05:59:26.338Z,34.65
2023-04-26T06:00:26.350Z,34.18
2023-04-26T06:01:26.381Z,34.78
2023-04-26T06:02:26.494Z,35.04
2023-04-26T06:03:26.572Z,34.86
2023-04-26T06:04:26.725Z,34.70
2023-04-26T06:05:26.562Z,34.76
2023-04-26T06:06:26.688Z,34.91
2023-04-26T06:07:26.525Z,35.00
2023-04-26T06:08:26.553Z,35.04
2023-04-26T06:09:26.616Z,35.01
2023-04-26T06:10:26.653Z,34.64
2023-04-26T06:11:26.653Z,34.78
2023-04-26T06:12:26.689Z,34.67
2023-04-26T06:13:26.725Z,34.90
2023-04-26T06:14:30.517Z,34.84
2023-04-26T06:15:26.725Z,34.74
2023-04-26T06:16:26.734Z,34.90
2023-04-26T06:17:26.681Z,34.89
2023-04-26T06:18:26.630Z,34.96
2023-04-26T06:19:26.591Z,35.00
2023-04-26T06:20:26.588Z,34.93
2023-04-26T06:21:26.549Z,34.72
2023-04-26T06:22:26.513Z,33.70
2023-04-26T06:23:26.507Z,33.99
2023-04-26T06:24:26.453Z,34.21
2023-04-26T06:25:26.435Z,34.30
2023-04-26T06:26:26.394Z,34.86
2023-04-26T06:27:26.375Z,34.82
2023-04-26T06:28:26.347Z,34.75
2023-04-26T06:29:26.316Z,34.79
2023-04-26T06:30:26.298Z,34.71
2023-04-26T06:31:26.292Z,34.73
2023-04-26T06:32:26.254Z,34.73
2023-04-26T06:33:26.188Z,34.72
2023-04-26T06:34:26.180Z,34.69
2023-04-26T06:35:26.126Z,34.65
2023-04-26T06:36:26.110Z,34.66
2023-04-26T06:37:26.075Z,34.69
2023-04-26T06:38:26.021Z,34.74
2023-04-26T06:39:25.996Z,34.75
2023-04-26T06:40:25.969Z,34.74
2023-04-26T06:41:25.986Z,34.74
2023-04-26T06:42:26.578Z,34.68
2023-04-26T06:43:26.038Z,34.38
2023-04-26T06:44:26.056Z,33.97
2023-04-26T06:45:26.116Z,34.05
2023-04-26T06:46:26.172Z,35.01
2023-04-26T06:47:26.202Z,35.10
2023-04-26T06:48:26.201Z,34.55
2023-04-26T06:49:26.243Z,34.74
2023-04-26T06:50:26.330Z,34.92
2023-04-26T06:51:26.307Z,34.61
2023-04-26T06:52:26.359Z,33.97
2023-04-26T06:53:26.379Z,34.20
2023-04-26T06:54:26.406Z,34.81
2023-04-26T06:55:26.461Z,34.84
2023-04-26T06:56:26.507Z,33.98
2023-04-26T06:57:26.537Z,34.08
2023-04-26T06:58:26.572Z,33.44
2023-04-26T06:59:26.610Z,34.49
2023-04-26T07:00:26.683Z,34.57
2023-04-26T07:01:26.733Z,34.75
2023-04-26T07:02:26.881Z,34.65
2023-04-26T07:03:26.924Z,34.26
2023-04-26T07:04:26.982Z,34.38
2023-04-26T07:05:26.838Z,34.51
2023-04-26T07:06:26.873Z,34.63
2023-04-26T07:07:26.930Z,34.42
2023-04-26T07:08:26.965Z,34.27
2023-04-26T07:09:26.984Z,33.40
2023-04-26T07:10:27.298Z,33.86
2023-04-26T07:11:27.118Z,34.36
2023-04-26T07:12:27.032Z,34.19
2023-04-26T07:13:28.194Z,34.33
2023-04-26T07:14:26.982Z,33.07
2023-04-26T07:15:26.950Z,33.57
2023-04-26T07:16:27.181Z,33.97
2023-04-26T07:17:26.898Z,34.47
2023-04-26T07:18:27.692Z,34.58
2023-04-26T07:19:26.840Z,35.17
2023-04-26T07:20:27.184Z,35.95
2023-04-26T07:21:26.830Z,35.90
2023-04-26T07:22:27.603Z,36.15
2023-04-26T07:23:26.718Z,35.77
2023-04-26T07:24:26.717Z,36.00
2023-04-26T07:25:26.658Z,35.40
2023-04-26T07:26:27.150Z,35.08
2023-04-26T07:27:26.639Z,34.92
2023-04-26T07:28:26.667Z,34.95
2023-04-26T07:29:26.689Z,34.87
2023-04-26T07:30:26.732Z,34.91
2023-04-26T07:31:26.725Z,34.91
2023-04-26T07:32:26.919Z,34.90
2023-04-26T07:33:26.847Z,34.97
2023-04-26T07:34:26.795Z,34.94
2023-04-26T07:35:27.611Z,34.79
2023-04-26T07:36:26.845Z,34.95
2023-04-26T07:37:28.701Z,34.70
2023-04-26T07:38:28.716Z,34.81
2023-04-26T07:39:27.685Z,34.84
2023-04-26T07:40:27.859Z,35.03
2023-04-26T07:41:26.861Z,34.50
2023-04-26T07:42:27.655Z,34.02
2023-04-26T07:43:26.768Z,34.73
2023-04-26T07:44:26.742Z,33.89
2023-04-26T07:45:26.774Z,33.87
2023-04-26T07:46:26.753Z,33.44
2023-04-26T07:47:26.688Z,33.22
2023-04-26T07:48:26.627Z,33.70
2023-04-26T07:49:26.651Z,34.11
2023-04-26T07:50:26.574Z,33.04
2023-04-26T07:51:26.527Z,34.05
2023-04-26T07:52:26.500Z,33.57
2023-04-26T07:53:26.484Z,34.12
2023-04-26T07:54:27.210Z,33.85
2023-04-26T07:55:26.426Z,34.05
2023-04-26T07:56:31.397Z,34.10
2023-04-26T07:57:26.316Z,34.28
2023-04-26T07:58:26.295Z,33.06
2023-04-26T07:59:26.266Z,33.87
2023-04-26T08:00:26.237Z,33.63
2023-04-26T08:01:26.219Z,33.38
2023-04-26T08:02:41.061Z,33.40
2023-04-26T08:03:27.372Z,32.63
2023-04-26T08:04:26.175Z,32.64
2023-04-26T08:05:26.856Z,33.21
2023-04-26T08:06:26.115Z,33.68
2023-04-26T08:07:26.016Z,32.95
2023-04-26T08:08:25.984Z,32.57
2023-04-26T08:09:25.961Z,32.61
2023-04-26T08:10:25.944Z,32.86
2023-04-26T08:11:25.925Z,32.94
2023-04-26T08:12:26.876Z,33.94
2023-04-26T08:13:29.304Z,35.33
2023-04-26T08:14:25.840Z,36.00
2023-04-26T08:15:25.809Z,35.70
2023-04-26T08:16:25.896Z,35.22
2023-04-26T08:17:25.847Z,34.68
2023-04-26T08:18:25.726Z,34.38
2023-04-26T08:19:26.728Z,33.19
2023-04-26T08:20:25.692Z,32.29
2023-04-26T08:21:25.668Z,32.04
2023-04-26T08:22:26.213Z,31.71
2023-04-26T08:23:25.610Z,31.97
2023-04-26T08:24:25.589Z,30.30
2023-04-26T08:25:25.568Z,29.61
2023-04-26T08:26:25.529Z,28.37
2023-04-26T08:27:25.505Z,27.81
2023-04-26T08:28:25.472Z,28.40
2023-04-26T08:29:25.451Z,28.05
2023-04-26T08:30:25.423Z,27.67
2023-04-26T08:31:25.470Z,26.91
2023-04-26T08:32:25.371Z,26.90
2023-04-26T08:33:25.322Z,26.86
2023-04-26T08:34:25.273Z,27.13
2023-04-26T08:35:25.232Z,27.34
2023-04-26T08:36:25.196Z,27.73
2023-04-26T08:37:25.342Z,28.13
2023-04-26T08:38:25.225Z,28.40
2023-04-26T08:39:25.246Z,28.65
2023-04-26T08:40:25.288Z,28.74
2023-04-26T08:41:25.282Z,28.93
2023-04-26T08:42:26.221Z,29.68
2023-04-26T08:43:25.267Z,30.03
2023-04-26T08:44:25.357Z,30.12
2023-04-26T08:45:25.238Z,30.34
2023-04-26T08:46:25.212Z,30.40
2023-04-26T08:47:25.529Z,30.53
2023-04-26T08:48:25.160Z,30.56
2023-04-26T08:49:25.081Z,30.83
2023-04-26T08:50:25.027Z,30.89
2023-04-26T08:51:24.992Z,31.05
2023-04-26T08:52:25.740Z,31.03
2023-04-26T08:53:24.918Z,30.98
2023-04-26T08:54:25.728Z,30.93
2023-04-26T08:55:24.853Z,31.07
2023-04-26T08:56:24.810Z,31.03
2023-04-26T08:57:24.790Z,31.31
2023-04-26T08:58:24.745Z,31.43
2023-04-26T08:59:24.715Z,31.33
2023-04-26T09:00:25.231Z,31.24
2023-04-26T09:01:24.678Z,31.28
2023-04-26T09:02:24.856Z,31.23
2023-04-26T09:03:24.784Z,31.25
2023-04-26T09:04:25.492Z,31.17
2023-04-26T09:05:25.053Z,31.23
2023-04-26T09:06:24.768Z,31.18
2023-04-26T09:07:25.741Z,31.17
2023-04-26T09:08:24.935Z,31.14
2023-04-26T09:09:24.840Z,31.11
2023-04-26T09:10:24.874Z,31.22
2023-04-26T09:11:24.905Z,31.13
2023-04-26T09:12:24.924Z,31.23
2023-04-26T09:13:24.960Z,31.50
2023-04-26T09:14:24.997Z,32.40
2023-04-26T09:15:24.993Z,32.42
2023-04-26T09:16:25.062Z,32.44
2023-04-26T09:17:25.055Z,34.37
2023-04-26T09:18:25.035Z,35.01
2023-04-26T09:19:25.069Z,34.32
2023-04-26T09:20:25.065Z,35.18
2023-04-26T09:21:25.131Z,34.41
2023-04-26T09:22:25.187Z,33.16
2023-04-26T09:23:25.184Z,33.38
2023-04-26T09:24:26.750Z,32.33
2023-04-26T09:25:25.746Z,31.93
2023-04-26T09:26:25.172Z,31.87
2023-04-26T09:27:25.158Z,31.79
2023-04-26T09:28:26.178Z,33.29
2023-04-26T09:29:25.144Z,32.87
2023-04-26T09:30:25.128Z,34.03
2023-04-26T09:31:25.144Z,33.98
2023-04-26T09:32:25.091Z,34.00
2023-04-26T09:33:25.126Z,33.90
2023-04-26T09:34:25.077Z,32.14
2023-04-26T09:35:25.070Z,33.44
2023-04-26T09:36:25.068Z,32.96
2023-04-26T09:37:25.045Z,32.51
2023-04-26T09:38:25.736Z,34.07
2023-04-26T09:39:25.028Z,32.01
2023-04-26T09:40:25.015Z,32.79
2023-04-26T09:41:25.018Z,33.33
2023-04-26T09:42:25.002Z,32.43
2023-04-26T09:43:25.011Z,31.10
2023-04-26T09:44:25.757Z,31.30
2023-04-26T09:45:25.026Z,32.55
2023-04-26T09:46:25.232Z,32.98
2023-04-26T09:47:25.055Z,32.92
2023-04-26T09:48:25.026Z,33.44
2023-04-26T09:49:25.108Z,32.98
2023-04-26T09:50:25.744Z,33.48
2023-04-26T09:51:25.006Z,32.97
2023-04-26T09:52:25.004Z,32.88
2023-04-26T09:53:25.070Z,33.05
2023-04-26T09:54:24.979Z,33.19
2023-04-26T09:55:34.038Z,32.69
2023-04-26T09:56:25.984Z,31.70
2023-04-26T09:57:26.673Z,32.02
2023-04-26T09:58:24.953Z,32.39
2023-04-26T09:59:24.920Z,32.30
2023-04-26T10:00:25.757Z,31.66
2023-04-26T10:01:25.877Z,32.80
2023-04-26T10:02:25.012Z,32.85
2023-04-26T10:03:25.777Z,31.61
2023-04-26T10:04:24.888Z,32.33
2023-04-26T10:05:24.845Z,32.57
2023-04-26T10:06:24.842Z,32.25
2023-04-26T10:07:24.840Z,32.39
2023-04-26T10:08:24.802Z,32.67
2023-04-26T10:09:29.953Z,31.56
2023-04-26T10:10:24.829Z,31.72
2023-04-26T10:11:24.799Z,32.02
2023-04-26T10:12:24.782Z,31.92
2023-04-26T10:13:24.769Z,31.93
2023-04-26T10:14:24.728Z,31.66
2023-04-26T10:15:24.736Z,31.90
2023-04-26T10:16:24.752Z,31.29
2023-04-26T10:17:24.725Z,32.84
2023-04-26T10:18:24.711Z,32.50
2023-04-26T10:19:24.685Z,33.31
2023-04-26T10:20:24.665Z,31.38
2023-04-26T10:21:24.683Z,32.24
2023-04-26T10:22:24.625Z,31.73
2023-04-26T10:23:24.609Z,31.81
2023-04-26T10:24:24.694Z,32.12
2023-04-26T10:25:24.618Z,33.60
2023-04-26T10:26:24.569Z,33.56
2023-04-26T10:27:24.578Z,32.97
2023-04-26T10:28:24.553Z,32.71
2023-04-26T10:29:24.579Z,33.29
2023-04-26T10:30:24.534Z,32.65
2023-04-26T10:31:24.554Z,32.94
2023-04-26T10:32:24.510Z,33.13
2023-04-26T10:33:24.563Z,32.43
2023-04-26T10:34:24.514Z,32.51
2023-04-26T10:35:24.525Z,32.11
2023-04-26T10:36:24.551Z,32.79
2023-04-26T10:37:24.555Z,32.21
2023-04-26T10:38:24.601Z,32.99
2023-04-26T10:39:24.584Z,32.21
2023-04-26T10:40:24.719Z,32.08
2023-04-26T10:41:24.769Z,31.84
2023-04-26T10:42:25.459Z,31.59
2023-04-26T10:43:26.091Z,31.61
2023-04-26T10:44:24.692Z,32.06
2023-04-26T10:45:24.826Z,32.46
2023-04-26T10:46:24.759Z,31.92
2023-04-26T10:47:24.813Z,31.68
2023-04-26T10:48:24.820Z,31.73
2023-04-26T10:49:26.651Z,31.46
2023-04-26T10:50:24.892Z,30.42
2023-04-26T10:51:24.939Z,31.13
2023-04-26T10:52:24.936Z,30.91
2023-04-26T10:53:24.974Z,30.68
2023-04-26T10:54:25.000Z,31.01
2023-04-26T10:55:25.549Z,30.83
2023-04-26T10:56:25.101Z,30.92
2023-04-26T10:57:25.072Z,30.98
2023-04-26T10:58:25.095Z,30.33
2023-04-26T10:59:39.681Z,31.32
2023-04-26T11:00:27.047Z,30.25
2023-04-26T11:01:25.117Z,30.59
2023-04-26T11:02:25.138Z,31.27
2023-04-26T11:03:25.194Z,29.96
2023-04-26T11:04:25.127Z,29.96
2023-04-26T11:05:25.484Z,30.38
2023-04-26T11:06:25.015Z,30.18
2023-04-26T11:07:24.994Z,29.98
2023-04-26T11:08:24.966Z,29.83
2023-04-26T11:09:24.945Z,30.24
2023-04-26T11:10:25.794Z,29.71
2023-04-26T11:11:24.891Z,29.76
2023-04-26T11:12:24.857Z,30.38
2023-04-26T11:13:24.825Z,30.49
2023-04-26T11:14:24.793Z,30.40
2023-04-26T11:15:24.763Z,30.23
2023-04-26T11:16:24.795Z,30.07
2023-04-26T11:17:24.696Z,29.95
2023-04-26T11:18:24.650Z,29.73
2023-04-26T11:19:24.627Z,29.75
2023-04-26T11:20:24.582Z,29.98
2023-04-26T11:21:24.559Z,30.09
2023-04-26T11:22:24.557Z,30.29
2023-04-26T11:23:24.482Z,30.39
2023-04-26T11:24:24.436Z,30.26
2023-04-26T11:25:24.410Z,30.30
2023-04-26T11:26:24.364Z,30.08
2023-04-26T11:27:24.324Z,30.27
2023-04-26T11:28:24.295Z,30.19
2023-04-26T11:29:24.267Z,30.28
2023-04-26T11:30:24.254Z,30.12
2023-04-26T11:31:24.257Z,29.75
2023-04-26T11:32:24.127Z,29.97
2023-04-26T11:33:24.115Z,30.06
2023-04-26T11:34:24.044Z,29.98
2023-04-26T11:35:24.015Z,30.03
2023-04-26T11:36:23.975Z,29.65
2023-04-26T11:37:23.963Z,29.76
2023-04-26T11:38:23.971Z,30.00
2023-04-26T11:39:24.001Z,29.97
2023-04-26T11:40:24.018Z,29.94
2023-04-26T11:41:24.043Z,29.80
2023-04-26T11:42:24.048Z,29.86
2023-04-26T11:43:24.084Z,29.86
2023-04-26T11:44:24.120Z,29.81
2023-04-26T11:45:24.309Z,29.84
2023-04-26T11:46:24.249Z,29.70
2023-04-26T11:47:24.191Z,29.81
2023-04-26T11:48:24.213Z,29.77
2023-04-26T11:49:24.215Z,29.91
2023-04-26T11:50:24.255Z,29.89
2023-04-26T11:51:24.298Z,29.86
2023-04-26T11:52:24.301Z,29.92
2023-04-26T11:53:24.349Z,29.86
2023-04-26T11:54:24.366Z,29.86
2023-04-26T11:55:24.404Z,29.86
2023-04-26T11:56:24.433Z,29.84
2023-04-26T11:57:24.446Z,29.72
2023-04-26T11:58:24.479Z,29.73
2023-04-26T11:59:24.495Z,29.67
2023-04-26T12:00:24.504Z,29.70
2023-04-26T12:01:24.571Z,29.70
2023-04-26T12:02:24.677Z,29.67
2023-04-26T12:03:24.755Z,29.69
2023-04-26T12:04:25.959Z,29.69
2023-04-26T12:05:24.676Z,29.70
2023-04-26T12:06:24.542Z,29.70
2023-04-26T12:07:24.499Z,29.71
2023-04-26T12:08:24.477Z,29.70
2023-04-26T12:09:24.442Z,29.45
2023-04-26T12:10:24.409Z,29.50
2023-04-26T12:11:24.414Z,29.48
2023-04-26T12:12:24.428Z,29.45
2023-04-26T12:13:24.340Z,29.65
2023-04-26T12:14:24.302Z,29.65
2023-04-26T12:15:24.271Z,29.67
2023-04-26T12:16:26.683Z,29.72
2023-04-26T12:17:24.361Z,29.77
2023-04-26T12:18:24.190Z,29.70
2023-04-26T12:19:24.151Z,29.81
2023-04-26T12:20:24.118Z,29.71
2023-04-26T12:21:24.091Z,29.75
2023-04-26T12:22:24.057Z,29.80
2023-04-26T12:23:24.026Z,29.75
2023-04-26T12:24:24.013Z,29.73
2023-04-26T12:25:23.968Z,29.78
2023-04-26T12:26:23.943Z,29.64
2023-04-26T12:27:23.897Z,29.67
2023-04-26T12:28:23.906Z,29.67
2023-04-26T12:29:23.831Z,29.62
2023-04-26T12:30:23.825Z,29.70
2023-04-26T12:31:23.833Z,29.59
2023-04-26T12:32:23.748Z,29.58
2023-04-26T12:33:23.757Z,29.61
2023-04-26T12:34:23.690Z,29.62
2023-04-26T12:35:23.656Z,29.55
2023-04-26T12:36:23.646Z,29.47
2023-04-26T12:37:23.616Z,29.56
2023-04-26T12:38:23.576Z,29.48
2023-04-26T12:39:23.550Z,29.47
2023-04-26T12:40:23.519Z,29.47
2023-04-26T12:41:23.498Z,29.79
2023-04-26T12:42:24.350Z,29.70
2023-04-26T12:43:23.442Z,30.61
2023-04-26T12:44:23.412Z,30.31
2023-04-26T12:45:23.398Z,30.20
2023-04-26T12:46:23.381Z,30.08
2023-04-26T12:47:23.353Z,30.00
2023-04-26T12:48:23.316Z,30.02
2023-04-26T12:49:23.274Z,30.06
2023-04-26T12:50:23.241Z,30.03
2023-04-26T12:51:23.213Z,30.03
2023-04-26T12:52:23.173Z,30.00
2023-04-26T12:53:23.162Z,30.00